首页
METAR-TAF:

METAR-TAF

机场 :

Büchel, 德国

纬度: 50-10N, 经度: 007-04E, 海拔: 478米

当前天气观测

该预报发布于42分钟前的04:56 UTC
风速4节,风向西
温度 1°C
湿度 100%
气压 1013 hPa
能見度: 2500
轻雾

METAR: ETSB 190456Z 26004KT 2500 BR VV001 01/01 Q1013 RED

时间: 06:38 (05:38 UTC)

预报

该预报发布于18分钟前的05:20 UTC
预报有效从19日的 06点(UTC)到 19日的 15点(UTC)
风速5节,风向西转西南
能見度: 0500
多云层高于100英尺
散云层高于1000英尺
多云层高于5000英尺
成为
从 19日的 07点(UTC)到 19日的 09点(UTC)
风速5节,风向西转西南
能見度: 5000
少量云层高于100英尺
多云层高于700英尺
多云层高于5000英尺
轻雾
成为
从 19日的 09点(UTC)到 19日的 11点(UTC)
风速6节,风向西转西南
能見度: 8000
散云层高于1000英尺
多云层高于5000英尺

TAF: ETSB 190520Z 1906/1915 24005KT 0500 FG BKN001 SCT010 BKN050 BECMG 1907/1909 25005KT 5000 BR FEW001 BKN007 BKN050 BECMG 1909/1911 25006KT 8000 NSW SCT010 BKN050 BY ETGL

超过4000个机场的气象观测和天气预报(METAR&TAF报告)。

可查询的气象台以黄色和红色小点在地图上表示。

将鼠标移到小点上方,可查看气象台名称。

然后点击查看天气观测和预报。

如需切换地图:点击带黑十字的绿色按钮放大地图;点击带横线的绿色按钮缩小地图;或者点击绿色箭头查看邻近地区的地图。


METAR-TAF: